Tiempo atmosférico en la estación meteorológica de A Pobra de Trives, Ourense (840 m.)



Fecha
DESCASC
Temp. máxima en grados centígrados (hora)
DESCASC
Temp. mínima en grados centígrados (hora)
DESCASC
Temp. media en grados centígrados
DESCASC
Racha de viento máxima en m/sg (hora)
DESCASC
Velocidad máxima media en intervalos de 10 minutos(hora)
DESCASC
Precipitaciones diarias en mm
DESCASC
Precipitaciones de 00:00 a 06:00 en mm
DESCASC
Precipitaciones de 06:00 a 12:00 en mm
DESCASC
Precipitaciones de 12:00 a 18:00 en mm
DESCASC
Precipitaciones de 18:00 a 24:00 en mm
DESCASC
18-02-2018 11.6 (15:50) -1.4 (07:10) 5.1 6.11 (18:40) 3.33 (23:20) 0 0 0 0 0
17-02-2018 10.7 (15:10) 0.8 (23:59) 5.7 7.22 (14:30) 3.89 (17:50) 1.4 1.4 0 0 0
16-02-2018 11.9 (17:00) 7.3 (23:50) 9.6 8.33 (20:30) 4.17 (21:00) 0.8 0 0.8 0 0
15-02-2018 16.6 (15:20) 8.8 (00:00) 12.7 9.44 (03:20) 4.72 (03:00) 5.6 0 0 0.8 4.8
14-02-2018 13.9 (14:40) 6.1 (00:00) 10 17.5 (14:40) 7.22 (14:50) 0.2 0 0 0.2 0
13-02-2018 7.5 (16:00) -1.4 (-00:0) 3.1 14.72 (13:20) 6.94 (18:40) 24 0 6.2 16.8 1
12-02-2018 5.2 (14:00) -2.1 (-00:0) 1.5 6.67 (16:10) 3.33 (15:30) 0 0 0 0 0
11-02-2018 9.6 (12:30) 0.5 (00:00) 5.1 13.89 (14:00) 6.67 (14:20) 11 2 1.2 7.6 0.2
10-02-2018 4.8 (13:40) -0.7 (-00:0) 2.1 5.83 (07:30) 3.06 (05:40) 1.2 0 0 0 1.2
09-02-2018 5.9 (15:00) -0.4 (00:00) 2.8 8.61 (13:50) 4.17 (14:10) 6.4 4.8 1.2 0.4 0
08-02-2018 6.3 (14:10) -5.2 (-00:0) 0.6 6.11 (14:50) 3.06 (00:20) 0 0 0 0 0
07-02-2018 5.1 (12:50) -2.6 (-00:0) 1.3 9.17 (16:30) 4.44 (16:10) 0 0 0 0 0
06-02-2018 3.1 (16:00) -4 (-00:0) -0.5 6.94 (12:00) 3.89 (12:00) 0 0 0 0 0
05-02-2018 4.3 (14:10) -2.7 (-00:0) 0.8 11.94 (15:40) 5.28 (15:40) 0 0 0 0 0
04-02-2018 5.5 (14:10) -0.8 (-00:0) 2.3 10.83 (00:20) 4.72 (00:20) 0.4 0.2 0.2 0 0
03-02-2018 5.6 (15:10) -1.2 (-00:0) 2.2 11.67 (23:40) 5 (22:40) 11 0 1.8 4 5.2
02-02-2018 4.4 (16:20) -1.4 (-00:0) 1.5 7.78 (14:10) 3.61 (16:30) 1 0.6 0.2 0.2 0
01-02-2018 5.8 (00:50) 0.1 (00:00) 3 11.39 (16:40) 5 (16:40) 8.2 1.2 0.8 4 2.2
31-01-2018 13.5 (15:40) -0.6 (-00:0) 6.4 8.06 (20:40) 4.44 (20:40) 0 0 0 0 0
30-01-2018 13.4 (14:30) -0.8 (-00:0) 6.3 5 (22:00) 3.33 (20:20) 0 0 0 0 0
29-01-2018 13 (15:20) 0.4 (00:00) 6.7 6.11 (00:30) 3.33 (00:30) 0 0 0 0 0
28-01-2018 11.3 (16:30) 1.5 (00:00) 6.4 8.06 (15:30) 4.17 (15:10) 0 0 0 0 0
27-01-2018 8 (14:40) 1.8 (00:00) 4.9 8.33 (20:00) 3.61 (10:40) 0 0 0 0 0
26-01-2018 5 (14:20) 1.2 (00:00) 3.1 10.83 (13:40) 4.44 (12:50) 4.2 1.4 1.2 1.6 0
25-01-2018 7.4 (03:00) 1.4 (00:00) 4.4 10.28 (12:10) 4.72 (09:20) 18.4 1.8 9.6 5.8 1.2
24-01-2018 7.3 (15:50) -1.3 (-00:0) 3 5.28 (22:40) 3.06 (07:10) 0 0 0 0 0
23-01-2018 10.3 (15:00) 2 (00:00) 6.2 4.44 (15:30) 2.78 (15:30) 0 0 0 0 0
22-01-2018 12.3 (14:10) 7.2 (00:00) 9.8 6.39 (13:40) 3.33 (14:10) 0 0 0 0 0

Gráficas

Temp. máximas Temp. mínimas Temp. medias Precipitaciones Rachas de viento máximas Velocidades máximas media en intervalos de 10 minutos

Datos horarios

Fecha y hora oficial Temperatura (ºC) Velocidad del viento (km/h) Dirección del viento Racha (km/h) Dirección de racha Precipitación (mm) Presión (hPa) Tendencia (hPa) Humedad (%)
2018-02-20 23:00:00 3.6 5 Oeste 15 Oeste 0 924.1 0.6 88
2018-02-20 22:00:00 4.3 7 Noroeste 15 Oeste 0 923.8 0.8 84
2018-02-20 21:00:00 5.6 9 Oeste 20 Oeste 0 923.7 0.9 81
2018-02-20 20:00:00 7.1 10 Oeste 21 Oeste 0 923.5 0.4 74
2018-02-20 19:00:00 9.2 10 Oeste 20 Oeste 0 923 -0.2 65
2018-02-20 18:00:00 11.2 8 Nordeste 16 Nordeste 0 922.8 -1.1 55
2018-02-20 17:00:00 12.2 5 Nordeste 22 Este 0 923.1 -1.4 51
2018-02-20 16:00:00 12.6 9 Este 18 Nordeste 0 923.2 -1.7 48
2018-02-20 15:00:00 12.4 8 Nordeste 15 Nordeste 0 923.9 -1.4 53
2018-02-20 14:00:00 11.6 7 Este 17 Este 0 924.5 -0.8 57
2018-02-20 13:00:00 10.7 8 Sudeste 18 Este 0 924.9 -0.4 61
2018-02-20 12:00:00 9.5 4 Sur 15 Oeste 0 925.3 0.1 69
2018-02-20 11:00:00 8.2 3 Noroeste 12 Oeste 0 925.3 0.5 79
2018-02-20 10:00:00 6 7 Oeste 12 Oeste 0 925.3 0.4 88
2018-02-20 09:00:00 2.5 5 Noroeste 10 Noroeste 0 925.2 0.3 94
2018-02-20 08:00:00 2.7 7 Noroeste 13 Oeste 0 924.8 -0.2 95
2018-02-20 07:00:00 3.1 8 Oeste 17 Oeste 0 924.9 0 94
2018-02-20 06:00:00 3.4 9 Oeste 16 Oeste 0 924.9 -0.3 94
2018-02-20 05:00:00 3.8 10 Oeste 19 Oeste 0 925 -0.3 94
2018-02-20 04:00:00 4.4 11 Oeste 19 Oeste 0 924.9 -0.4 94
2018-02-20 03:00:00 4.4 9 Noroeste 20 Noroeste 0 925.2 0 93
2018-02-20 02:00:00 5 7 Oeste 11 Oeste 0 925.3 0.3 90
2018-02-20 01:00:00 5.7 5 Oeste 10 Noroeste 0 925.3 0.2 90
2018-02-20 00:00:00 5.6 6 Noroeste 14 Noroeste 0 925.2 0.1 92
2018-02-19 23:00:00 5.6 7 Oeste 15 Oeste 0 925 0 92
2018-02-19 22:00:00 5.5 7 Oeste 17 Noroeste 0 925.1 0.1 92
2018-02-19 21:00:00 5.9 8 Oeste 17 Oeste 0 925.1 0.2 91
2018-02-19 20:00:00 6.6 10 Oeste 16 Oeste 0 925 0.2 88
2018-02-19 19:00:00 7.4 5 Oeste 15 Norte 0 925 0.2 81
2018-02-19 18:00:00 8.2 8 Noroeste 18 Norte 0 924.9 0 80
2018-02-19 17:00:00 8.7 8 Norte 21 Norte 0 924.8 -0.3 79
2018-02-19 16:00:00 10.4 8 Noroeste 17 Norte 0 924.8 -0.9 67
2018-02-19 15:00:00 10.8 6 Oeste 16 Oeste 0 924.9 -0.7 64
2018-02-19 14:00:00 9.6 3 Noroeste 14 Oeste 0 925.1 -0.1 72
2018-02-19 13:00:00 8.4 8 Oeste 17 Oeste 0 925.7 0.1 77
2018-02-19 12:00:00 7.4 9 Oeste 16 Oeste 0 925.6 0.4 80
2018-02-19 11:00:00 6.2 8 Oeste 14 Oeste 0 925.2 0.1 83
2018-02-19 10:00:00 5.2 6 Oeste 15 Oeste 0 925.6 0.6 89
2018-02-19 09:00:00 4.6 8 Oeste 19 Oeste 0 925.2 0.4 92
2018-02-19 08:00:00 4.5 11 Oeste 27 Oeste 0 925.1 0.6 92
2018-02-19 07:00:00 5 13 Oeste 28 Oeste 0 925 0.1 92
2018-02-19 06:00:00 4.8 9 Oeste 19 Oeste 0 924.8 -0.5 90
2018-02-19 05:00:00 5.2 12 Oeste 19 Oeste 0 924.5 -1.3 84
2018-02-19 04:00:00 5.3 10 Oeste 18 Noroeste 0 924.9 -1.3 84
2018-02-19 03:00:00 5.1 9 Noroeste 19 Noroeste 0 925.3 -1.1 88
2018-02-19 02:00:00 5.4 9 Oeste 16 Oeste 0 925.8 -1.1 87
2018-02-19 01:00:00 5.7 8 Oeste 14 Oeste 0 926.2 -0.8 85
2018-02-19 00:00:00 6 8 Oeste 20 Oeste 0 926.4 -0.6 85
2018-02-18 23:00:00 6.5 10 Oeste 17 Oeste 0 926.9 -0.2 83
2018-02-18 22:00:00 6.8 9 Oeste 18 Noroeste 0 927 0 81
2018-02-18 21:00:00 7.5 5 Oeste 10 Oeste 0 927 0.2 74
2018-02-18 20:00:00 8.1 4 Noroeste 17 Oeste 0 927.1 0.2 69
2018-02-18 19:00:00 8.8 9 Oeste 22 Oeste 0 927 -0.1 68
2018-02-18 18:00:00 9.9 8 Oeste 18 Noroeste 0 926.8 -0.5 67
2018-02-18 17:00:00 10.8 9 Oeste 18 Oeste 0 926.9 -0.8 60
2018-02-18 16:00:00 11.4 9 Oeste 19 Sudeste 0 927.1 -1.3 55
2018-02-18 15:00:00 11.3 8 Este 17 Sudeste 0 927.3 -1.4 50
2018-02-18 14:00:00 11 7 Este 17 Sudeste 0 927.7 -1.2 51
2018-02-18 13:00:00 9.5 6 Este 12 Este 0 928.4 -0.6 55
2018-02-18 12:00:00 7.4 6 Este 13 Nordeste 0 928.7 -0.5 60
2018-02-18 11:00:00 5.5 3 Norte 9 Norte 0 928.9 0.2 69
2018-02-18 10:00:00 2.9 5 Noroeste 13 Noroeste 0 929 0.5 79
2018-02-18 09:00:00 0.1 4 Oeste 10 Noroeste 0 929.2 0.6 87
2018-02-18 08:00:00 -1.1 4 Noroeste 12 Noroeste 0 928.7 -0.1 89
2018-02-18 07:00:00 -1.3 8 Noroeste 11 Noroeste 0 928.5 -0.6 89
2018-02-18 06:00:00 -0.9 6 Noroeste 13 Noroeste 0 928.6 -0.9 89
2018-02-18 05:00:00 -0.7 9 Noroeste 14 Noroeste 0 928.8 -1 87
2018-02-18 04:00:00 -0.4 8 Noroeste 13 Noroeste 0 929.1 -0.8 87
2018-02-18 03:00:00 0 5 Noroeste 11 Noroeste 0 929.5 -0.4 85
2018-02-18 02:00:00 1.3 3 Sudoeste 11 Noroeste 0 929.8 0 80
2018-02-18 01:00:00 0.6 4 Norte 13 Noroeste 0 929.9 0.4 83
2018-02-18 00:00:00 1 3 Oeste 10 Noroeste 0 929.9 0.9 84
2018-02-17 23:00:00 1.6 7 Noroeste 13 Noroeste 0 929.8 0.8 82
2018-02-17 22:00:00 2.7 8 Noroeste 16 Noroeste 0 929.5 1 79
2018-02-17 21:00:00 3.4 8 Noroeste 12 Noroeste 0 929 0.8 76
2018-02-17 20:00:00 4.9 8 Oeste 17 Oeste 0 929 0.9 70
2018-02-17 19:00:00 6.3 6 Noroeste 19 Noroeste 0 928.5 0.5 62
2018-02-17 18:00:00 7.8 12 Noroeste 23 Norte 0 928.2 -0.3 60
2018-02-17 17:00:00 9.3 10 Noroeste 25 Noroeste 0 928.1 -0.9 62
2018-02-17 16:00:00 10.1 6 Nordeste 19 Nordeste 0 928 -1.4 46
2018-02-17 15:00:00 10.6 6 Noroeste 26 Norte 0 928.5 -0.8 55
2018-02-17 14:00:00 9.3 4 Nordeste 14 Este 0 929 -0.1 57
2018-02-17 13:00:00 9.2 5 Norte 14 Este 0 929.4 0.8 59
2018-02-17 12:00:00 8.1 5 Norte 13 Nordeste 0 929.3 1 67
2018-02-17 11:00:00 7.8 6 Noroeste 12 Noroeste 0 929.1 1.4 74
2018-02-17 10:00:00 5.9 7 Noroeste 17 Oeste 0 928.6 1.3 86
2018-02-17 09:00:00 3.6 10 Oeste 19 Oeste 0 928.3 1.1 93
2018-02-17 08:00:00 3.8 11 Noroeste 23 Noroeste 0 927.7 0.8 95
2018-02-17 07:00:00 4.9 9 Oeste 18 Oeste 0 927.3 0.5 94
2018-02-17 06:00:00 5.2 7 Oeste 19 Oeste 0 927.2 0.7 93
2018-02-17 05:00:00 5.6 10 Oeste 21 Oeste 0 926.9 0.3 94
2018-02-17 04:00:00 6.2 8 Noroeste 18 Noroeste 0.2 926.8 0.3 95
2018-02-17 03:00:00 6.4 6 Noroeste 19 Noroeste 0.2 926.5 0.3 95
2018-02-17 02:00:00 6.5 4 Noroeste 9 Oeste 0.6 926.6 0.7 94
2018-02-17 01:00:00 6.9 6 Oeste 14 Oeste 0.4 926.5 0.9 93
2018-02-17 00:00:00 7.3 6 Oeste 19 Oeste 0 926.2 0.9 92
2018-02-16 23:00:00 7.6 10 Oeste 21 Oeste 0 925.9 0.9 91
2018-02-16 22:00:00 8 9 Noroeste 29 Oeste 0 925.6 1.2 87
2018-02-16 21:00:00 8.4 15 Oeste 30 Oeste 0 925.3 1.3 86
2018-02-16 20:00:00 8.3 9 Noroeste 23 Oeste 0 925 1 91
2018-02-16 19:00:00 9 9 Oeste 24 Oeste 0 924.4 0.3 89
2018-02-16 18:00:00 10.7 10 Oeste 23 Oeste 0 924 -0.4 83
2018-02-16 17:00:00 11.7 12 Oeste 23 Oeste 0 924 -1.2 82
2018-02-16 16:00:00 11.4 10 Oeste 22 Oeste 0 924.1 -1.8 85
2018-02-16 15:00:00 11.5 4 Este 19 Oeste 0 924.4 -1.6 86
2018-02-16 14:00:00 11.4 4 Norte 12 Noroeste 0 925.2 -0.9 88
2018-02-16 13:00:00 10.5 4 Este 9 Nordeste 0 925.9 -0.1 93
2018-02-16 12:00:00 10 4 Norte 10 Noroeste 0 926 0 94
2018-02-16 11:00:00 9.2 3 Nordeste 9 Nordeste 0.2 926.1 0.4 96
2018-02-16 10:00:00 8.3 3 Nordeste 8 Noroeste 0.4 926 0.2 96
2018-02-16 09:00:00 8 3 Noroeste 10 Norte 0 926 0 96
2018-02-16 08:00:00 8.1 4 Nordeste 10 Norte 0.2 925.7 -0.3 96
2018-02-16 07:00:00 8.4 3 Nordeste 8 Sudoeste 0 925.8 -0.3 96
2018-02-16 06:00:00 8.4 3 Sudeste 10 Nordeste 0 926 -0.4 96
2018-02-16 05:00:00 8.7 3 Noroeste 12 Norte 0 926 -0.5 96
2018-02-16 04:00:00 8.9 3 Norte 14 Noroeste 0 926.1 -0.7 95
2018-02-16 03:00:00 9.2 7 Norte 16 Noroeste 0 926.4 -0.3 94
2018-02-16 02:00:00 9.5 7 Nordeste 28 Oeste 0 926.5 -0.2 92
2018-02-16 01:00:00 9.7 5 Noroeste 14 Sur 0 926.8 0.3 94
2018-02-16 00:00:00 9.6 4 Norte 8 Nordeste 0 926.7 0.4 95
2018-02-15 23:00:00 10 4 Sudeste 17 Sudoeste 0 926.7 0.2 95
2018-02-15 22:00:00 10.2 2 Sudoeste 8 Norte 0.2 926.5 0.6 96
2018-02-15 21:00:00 10.4 4 Este 8 Norte 1.2 926.3 0.9 95
2018-02-15 20:00:00 10.6 3 Sudeste 9 Noroeste 1.6 926.5 1.2 94
2018-02-15 19:00:00 11 4 Noroeste 12 Oeste 1.8 925.9 1 93
2018-02-15 18:00:00 11.5 4 Oeste 18 Noroeste 0.8 925.4 0.4 91
2018-02-15 17:00:00 13.3 8 Oeste 19 Sur 0 925.3 0 80
2018-02-15 16:00:00 15.3 8 Sudoeste 24 Oeste 0 924.9 -0.9 68
2018-02-15 15:00:00 15.6 14 Sudoeste 32 Sudoeste 0 925 -0.5 68
2018-02-15 14:00:00 15.3 12 Sudoeste 32 Oeste 0 925.3 0.2 68
2018-02-15 13:00:00 11.9 9 Sur 26 Sudoeste 0 925.8 1 83
2018-02-15 12:00:00 10.4 8 Este 17 Nordeste 0 925.5 1.2 90
2018-02-15 11:00:00 10.1 8 Nordeste 15 Nordeste 0 925.1 1.3 91
2018-02-15 10:00:00 9.8 4 Este 10 Este 0 924.8 1.2 92
2018-02-15 09:00:00 9.1 5 Este 10 Este 0 924.3 1 93
2018-02-15 08:00:00 8.9 4 Este 11 Este 0 923.8 0.8 91
2018-02-15 07:00:00 9.6 4 Sudeste 18 Sudoeste 0 923.6 0.7 87
2018-02-15 06:00:00 9.9 7 Sudoeste 27 Oeste 0 923.3 0.5 85
2018-02-15 05:00:00 10.1 6 Sudoeste 33 Oeste 0 923 0.2 82
2018-02-15 04:00:00 10.5 17 Sudoeste 34 Oeste 0 922.9 -0.1 81
2018-02-15 03:00:00 10.6 17 Sudoeste 31 Sudoeste 0 922.8 0 81
2018-02-15 02:00:00 10.4 11 Oeste 28 Sudoeste 0 922.8 0.2 82
2018-02-15 01:00:00 10.3 8 Sudoeste 24 Sudoeste 0 923 0.8 84
2018-02-15 00:00:00 10.3 6 Sudoeste 29 Sudoeste 0 922.8 1 84
2018-02-14 23:00:00 10.3 11 Sudoeste 27 Sudoeste 0 922.6 1.1 83
2018-02-14 22:00:00 10.4 12 Sudoeste 36 Oeste 0 922.2 1.2 81
2018-02-14 21:00:00 10.4 12 Oeste 33 Oeste 0 921.8 1.1 82
2018-02-14 20:00:00 10.3 14 Oeste 35 Noroeste 0 921.5 1 83
2018-02-14 19:00:00 10.4 13 Oeste 40 Oeste 0 921 0.9 84
2018-02-14 18:00:00 10.8 15 Oeste 47 Oeste 0 920.7 0.9 84
2018-02-14 17:00:00 11 19 Oeste 51 Sudoeste 0 920.5 0.4 83
2018-02-14 16:00:00 12.2 19 Oeste 48 Oeste 0 920.1 -0.2 76
2018-02-14 15:00:00 13.5 25 Oeste 63 Sudoeste 0 919.8 -0.5 72
2018-02-14 14:00:00 12.8 24 Oeste 48 Sudoeste 0 920.1 0.1 78
2018-02-14 13:00:00 10 16 Oeste 43 Sudoeste 0.2 920.3 1.1 89
2018-02-14 12:00:00 9.9 13 Oeste 33 Oeste 0 920.3 1.7 90
2018-02-14 11:00:00 8.9 15 Oeste 44 Sudoeste 0 920 1.7 90
2018-02-14 10:00:00 8.6 18 Oeste 48 Oeste 0 919.2 0.8 87
2018-02-14 09:00:00 8.1 18 Oeste 48 Sudoeste 0 918.6 0 86
2018-02-14 08:00:00 7.4 13 Sudoeste 38 Sudoeste 0 918.3 -0.4 89
2018-02-14 07:00:00 7.1 13 Oeste 30 Sudoeste 0 918.4 -0.5 87
2018-02-14 06:00:00 6.6 10 Sudoeste 31 Sudoeste 0 918.6 -0.5 88
2018-02-14 05:00:00 6.5 7 Sudoeste 31 Sudoeste 0 918.7 -1 86
2018-02-14 04:00:00 6.5 9 Oeste 32 Sudoeste 0 918.9 -0.7 85
2018-02-14 03:00:00 6.4 14 Oeste 42 Sudoeste 0 919.1 -0.6 86
2018-02-14 02:00:00 6.3 12 Oeste 36 Oeste 0 919.7 0 90
2018-02-14 01:00:00 6.2 12 Oeste 37 Oeste 0 919.6 -0.1 92
2018-02-14 00:00:00 6.1 17 Oeste 36 Sudoeste 0.2 919.7 0.1 91
2018-02-13 23:00:00 6.1 18 Oeste 41 Oeste 0 919.7 0.5 94
2018-02-13 22:00:00 6 23 Oeste 42 Oeste 0.2 919.7 0.8 94
2018-02-13 21:00:00 6.5 20 Oeste 49 Oeste 0.4 919.6 1.1 95
2018-02-13 20:00:00 6.7 22 Oeste 47 Oeste 0 919.2 0.7 94
2018-02-13 19:00:00 6.9 24 Oeste 53 Sudoeste 0.2 918.9 1.2 94
2018-02-13 18:00:00 7.2 21 Oeste 46 Oeste 1.8 918.5 0.3 95
2018-02-13 17:00:00 7.2 12 Oeste 43 Oeste 6.4 918.5 0.4 95
2018-02-13 16:00:00 7.5 23 Oeste 45 Oeste 2 917.7 -0.9 94
2018-02-13 15:00:00 6.9 16 Oeste 39 Oeste 3 918.2 -0.9 94
2018-02-13 14:00:00 6.8 21 Oeste 53 Oeste 1.6 918.1 -0.4 93
2018-02-13 13:00:00 5.8 20 Oeste 46 Oeste 2 918.6 -0.1 93
2018-02-13 12:00:00 4.3 13 Oeste 36 Oeste 2 919.1 0.9 93
2018-02-13 11:00:00 3.7 20 Oeste 45 Oeste 2.8 918.5 0.5 91
2018-02-13 10:00:00 3.5 17 Sudoeste 51 Oeste 1 918.7 0.1 88
2018-02-13 09:00:00 3.2 21 Oeste 48 Oeste 0.2 918.2 -1 86
2018-02-13 08:00:00 2.6 12 Oeste 41 Oeste 0.2 918 -1.9 86
2018-02-13 07:00:00 2.4 16 Oeste 46 Sudoeste 0 918.6 -2.5 83
2018-02-13 06:00:00 2 16 Sudoeste 53 Oeste 0 919.2 -2.6 80
2018-02-13 05:00:00 1.2 17 Sudoeste 38 Oeste 0 919.9 -2.5 81
2018-02-13 04:00:00 -0.8 4 Norte 13 Este 0 921.1 -1.9 81
2018-02-13 03:00:00 -0.8 5 Sur 19 Oeste 0 921.8 -1.3 77
2018-02-13 02:00:00 -1.4 6 Oeste 12 Oeste 0 922.4 -1.1 85
2018-02-13 01:00:00 -1 0 Calma 15 Oeste 0 923 -0.6 88
2018-02-13 00:00:00 -0.3 7 Oeste 14 Oeste 0 923.1 -1 85
2018-02-12 23:00:00 -0.8 9 Oeste 15 Oeste 0 923.5 -0.6 88
2018-02-12 22:00:00 -0.3 6 Oeste 16 Oeste 0 923.6 -0.2 88
2018-02-12 21:00:00 0 9 Oeste 15 Oeste 0 924.1 0.4 87
2018-02-12 20:00:00 0 6 Oeste 10 Oeste 0 924.1 0.1 86
2018-02-12 19:00:00 1.1 5 Oeste 13 Noroeste 0 923.8 -0.5 80
2018-02-12 18:00:00 2.5 6 Oeste 13 Oeste 0 923.7 -1.4 73
2018-02-12 17:00:00 4.2 8 Oeste 24 Noroeste 0 924 -1.6 70
2018-02-12 16:00:00 4.7 10 Oeste 23 Oeste 0 924.3 -2.2 64
2018-02-12 15:00:00 4.7 10 Oeste 21 Oeste 0 925.1 -1.6 66
2018-02-12 14:00:00 5.1 7 Noroeste 18 Oeste 0 925.6 -0.8 68
2018-02-12 13:00:00 3.4 9 Oeste 16 Oeste 0 926.5 0.7 79
2018-02-12 12:00:00 3 9 Oeste 16 Oeste 0 926.7 1.3 79
2018-02-12 11:00:00 1.8 8 Oeste 15 Oeste 0 926.4 1.6 82
2018-02-12 10:00:00 1.1 10 Oeste 16 Oeste 0 925.8 1.3 82
2018-02-12 09:00:00 -1.3 9 Oeste 14 Oeste 0 925.4 0.8 90
2018-02-12 08:00:00 -2 9 Noroeste 13 Oeste 0 924.8 -0.2 90
2018-02-12 07:00:00 -1.4 7 Noroeste 11 Noroeste 0 924.5 -0.5 89
2018-02-12 06:00:00 -1.8 8 Oeste 11 Noroeste 0 924.6 -0.8 91
2018-02-12 05:00:00 -1.4 5 Oeste 12 Noroeste 0 925 -0.8 88
2018-02-12 04:00:00 -1.3 7 Oeste 11 Oeste 0 925 -0.8 85
2018-02-12 03:00:00 -1 5 Noroeste 13 Sudoeste 0 925.4 -0.4 86
2018-02-12 02:00:00 -0.5 6 Oeste 14 Oeste 0 925.8 -0.2 87
2018-02-12 01:00:00 0 6 Oeste 12 Sudoeste 0 925.8 0.2 87
2018-02-12 00:00:00 0.5 6 Oeste 14 Oeste 0 925.8 0.8 90
2018-02-11 23:00:00 1.7 4 Oeste 22 Oeste 0 926 1.3 90
2018-02-11 22:00:00 2.7 8 Oeste 29 Noroeste 0 925.6 1.3 91
2018-02-11 21:00:00 3.4 13 Oeste 29 Oeste 0 925 1.3 92
2018-02-11 20:00:00 3.8 11 Noroeste 33 Noroeste 0.2 924.7 1.2 93
2018-02-11 19:00:00 4.8 9 Noroeste 45 Noroeste 0 924.3 1.1 95
2018-02-11 18:00:00 6.4 10 Noroeste 33 Noroeste 0.8 923.7 0.5 95
2018-02-11 17:00:00 7 12 Noroeste 33 Oeste 1.2 923.5 -0.3 95
2018-02-11 16:00:00 8.2 17 Oeste 41 Oeste 2.6 923.2 -1.2 93
2018-02-11 15:00:00 8.9 17 Oeste 48 Oeste 1.4 923.2 -1.4 92
2018-02-11 14:00:00 8.6 22 Oeste 50 Oeste 1.6 923.8 -1.3 92
2018-02-11 13:00:00 8.8 16 Oeste 47 Oeste 0 924.4 -0.8 89
2018-02-11 12:00:00 9.3 18 Oeste 42 Oeste 0 924.6 -0.2 93
2018-02-11 11:00:00 7.8 12 Oeste 29 Oeste 0 925.1 0.4 96
2018-02-11 10:00:00 7.5 14 Oeste 30 Oeste 0.2 925.2 0.3 96
2018-02-11 09:00:00 7.2 11 Oeste 27 Oeste 0.4 924.8 -0.3 97
2018-02-11 08:00:00 7 10 Oeste 24 Oeste 0.2 924.7 -0.4 97
2018-02-11 07:00:00 6.7 10 Oeste 18 Oeste 0.4 924.9 -0.4 97
2018-02-11 06:00:00 6.6 9 Oeste 18 Oeste 0.4 925.1 -0.6 97
2018-02-11 05:00:00 6.1 11 Oeste 23 Oeste 0.4 925.1 -1 97
2018-02-11 04:00:00 4.5 4 Sudoeste 16 Sudoeste 0.2 925.3 -1.3 96
2018-02-11 03:00:00 4.6 2 Nordeste 18 Oeste 0.2 925.7 -0.8 96
2018-02-11 02:00:00 5.6 11 Oeste 21 Oeste 0.4 926.1 -0.7 97
2018-02-11 01:00:00 5 8 Oeste 20 Oeste 0.4 926.6 -0.2 97
2018-02-11 00:00:00 3.9 3 Sudoeste 9 Noroeste 0.4 926.5 -0.5 96
2018-02-10 23:00:00 4.2 4 Noroeste 10 Oeste 0.2 926.8 -0.1 96
2018-02-10 22:00:00 4.1 5 Noroeste 14 Oeste 0.2 926.8 -0.2 96
2018-02-10 21:00:00 3.9 5 Oeste 15 Oeste 0 927 -0.2 96
2018-02-10 20:00:00 3.7 8 Noroeste 15 Oeste 0.2 926.9 -0.1 95
2018-02-10 19:00:00 3.8 6 Oeste 15 Oeste 0.2 927 -0.2 95
2018-02-10 18:00:00 3.9 8 Oeste 18 Oeste 0 927.2 -0.1 94
2018-02-10 17:00:00 4.1 8 Oeste 16 Oeste 0 927 -1 91
2018-02-10 16:00:00 4.3 7 Oeste 17 Oeste 0 927.2 -1.2 86
2018-02-10 15:00:00 4.4 9 Oeste 18 Oeste 0 927.3 -1.4 87
2018-02-10 14:00:00 4.7 7 Oeste 13 Oeste 0 928 -0.6 83
2018-02-10 13:00:00 4.2 7 Oeste 14 Noroeste 0 928.4 -0.4 85
2018-02-10 12:00:00 3.2 5 Noroeste 18 Oeste 0 928.7 0.7 87
2018-02-10 11:00:00 2.9 8 Oeste 15 Sudoeste 0 928.6 0.7 91
2018-02-10 10:00:00 1 6 Oeste 18 Oeste 0 928.8 1.2 93
2018-02-10 09:00:00 0.1 8 Oeste 14 Oeste 0 928 0.2 93
2018-02-10 08:00:00 0.3 8 Oeste 21 Oeste 0 927.9 0.3 94
2018-02-10 07:00:00 0.2 10 Oeste 20 Oeste 0 927.6 0 94
2018-02-10 06:00:00 -0.1 7 Oeste 19 Noroeste 0 927.8 -0.6 95
2018-02-10 05:00:00 -0.1 6 Noroeste 14 Oeste 0 927.6 -0.8 94
2018-02-10 04:00:00 -0.2 7 Noroeste 12 Oeste 0 927.6 -1.2 94
2018-02-10 03:00:00 0 6 Oeste 17 Oeste 0 928.4 0.1 94
2018-02-10 02:00:00 0 8 Oeste 14 Sudoeste 0 928.4 0.7 96
2018-02-10 01:00:00 -0.6 7 Oeste 17 Oeste 0 928.8 1.1 94
2018-02-10 00:00:00 -0.4 10 Oeste 20 Noroeste 0 928.3 0.9 94
2018-02-09 23:00:00 -0.2 10 Noroeste 17 Noroeste 0 927.7 0.6 94
2018-02-09 22:00:00 0.5 10 Noroeste 25 Oeste 0 927.7 1.4 92
2018-02-09 21:00:00 1 14 Noroeste 27 Noroeste 0 927.4 1.4 90
2018-02-09 20:00:00 1.8 6 Noroeste 22 Noroeste 0 927.1 1.8 88
2018-02-09 19:00:00 2.8 9 Noroeste 22 Noroeste 0 926.3 1.5 87
2018-02-09 18:00:00 4.3 12 Noroeste 31 Noroeste 0 926 1 87
2018-02-09 17:00:00 5.1 13 Noroeste 26 Noroeste 0 925.3 0.6 89
2018-02-09 16:00:00 5.6 15 Noroeste 26 Noroeste 0.2 924.8 0.3 91
2018-02-09 15:00:00 5.8 9 Norte 29 Noroeste 0 925 0.5 87
2018-02-09 14:00:00 5.7 13 Norte 31 Noroeste 0 924.7 0.7 90
2018-02-09 13:00:00 4.7 7 Noroeste 22 Oeste 0.2 924.5 0.9 95
2018-02-09 12:00:00 4.3 9 Oeste 18 Oeste 0 924.5 1.5 96
2018-02-09 11:00:00 3.9 9 Oeste 17 Oeste 0.2 924 2.1 96
2018-02-09 10:00:00 3.5 6 Oeste 18 Oeste 0 923.6 2.2 96
2018-02-09 09:00:00 2.8 6 Oeste 14 Noroeste 0.6 923 1.7 96
2018-02-09 08:00:00 2.5 6 Oeste 16 Oeste 0 921.9 0.5 96
2018-02-09 07:00:00 1.3 2 Noroeste 7 Noroeste 0.4 921.4 0.1 95
2018-02-09 06:00:00 1.1 2 Noroeste 6 Norte 0.4 921.3 -0.1 95
2018-02-09 05:00:00 1 5 Noroeste 9 Nordeste 1.8 921.4 -0.4 94
2018-02-09 04:00:00 1 0 Calma 9 Nordeste 1.2 921.3 -0.7 94
2018-02-09 03:00:00 1.1 5 Noroeste 6 Noroeste 1.2 921.4 -0.8 93
2018-02-09 02:00:00 1.3 4 Noroeste 7 Noroeste 0.2 921.8 -0.7 90
2018-02-09 01:00:00 1.5 0 Calma 8 Noroeste 0 922 -0.6 82
2018-02-09 00:00:00 1.7 4 Noroeste 7 Noroeste 0 922.2 -0.4 78
2018-02-08 23:00:00 1.9 0 Calma 5 Sudoeste 0 922.5 -0.3 72
2018-02-08 22:00:00 2 4 Sudoeste 17 Oeste 0 922.6 -0.3 70
2018-02-08 21:00:00 1.7 8 Oeste 15 Oeste 0 922.6 -0.1 70
2018-02-08 20:00:00 2.2 10 Oeste 17 Oeste 0 922.8 -0.2 67
2018-02-08 19:00:00 2.6 8 Oeste 17 Noroeste 0 922.9 -0.3 66
2018-02-08 18:00:00 3.3 9 Oeste 21 Oeste 0 922.7 -1.1 64
2018-02-08 17:00:00 4.4 9 Noroeste 21 Noroeste 0 923 -1.4 60
2018-02-08 16:00:00 5.5 8 Oeste 21 Oeste 0 923.2 -1.9 56
2018-02-08 15:00:00 5.9 10 Oeste 22 Noroeste 0 923.8 -1.6 56
2018-02-08 14:00:00 6.2 6 Oeste 19 Sudoeste 0 924.4 -0.9 52
2018-02-08 13:00:00 5 5 Oeste 16 Oeste 0 925.1 0 51
2018-02-08 12:00:00 2.1 6 Oeste 13 Sudoeste 0 925.4 0.6 69
2018-02-08 11:00:00 0 3 Este 10 Sudeste 0 925.3 0.7 77
2018-02-08 10:00:00 0.6 5 Noroeste 11 Noroeste 0 925.1 0.7 75
2018-02-08 09:00:00 -3.7 5 Noroeste 9 Oeste 0 924.8 0.4 89
2018-02-08 08:00:00 -4.1 0 Calma 15 Noroeste 0 924.6 0.4 88
2018-02-08 07:00:00 -4.5 8 Oeste 15 Oeste 0 924.4 0 89
2018-02-08 06:00:00 -5.1 8 Noroeste 15 Oeste 0 924.4 -0.1 90
2018-02-08 05:00:00 -5.2 6 Noroeste 13 Oeste 0 924.2 -0.4 90
2018-02-08 04:00:00 -4.5 8 Noroeste 14 Noroeste 0 924.4 -0.3 89
2018-02-08 03:00:00 -4.2 7 Oeste 13 Oeste 0 924.5 -0.1 90
2018-02-08 02:00:00 -3.4 7 Noroeste 15 Oeste 0 924.6 0.1 90
2018-02-08 01:00:00 -3.1 9 Oeste 18 Oeste 0 924.7 0.6 88
2018-02-08 00:00:00 -2.6 8 Oeste 17 Noroeste 0 924.6 1 89
2018-02-07 23:00:00 -2.4 7 Oeste 13 Oeste 0 924.5 1.3 84
2018-02-07 22:00:00 -1.8 8 Oeste 17 Noroeste 0 924.1 1.3 80
2018-02-07 21:00:00 -1.5 12 Noroeste 26 Noroeste 0 923.6 1.7 77
2018-02-07 20:00:00 -0.8 12 Norte 25 Noroeste 0 923.2 1.1 74
2018-02-07 19:00:00 0 9 Norte 33 Norte 0 922.8 0.9 76
2018-02-07 18:00:00 1.1 11 Norte 28 Noroeste 0 921.9 0.1 68
2018-02-07 17:00:00 2.4 14 Noroeste 33 Norte 0 922.1 -0.1 69
2018-02-07 16:00:00 3.6 13 Noroeste 30 Noroeste 0 921.9 -0.5 62
2018-02-07 15:00:00 3.4 10 Noroeste 24 Noroeste 0 921.8 -0.7 64
2018-02-07 14:00:00 4.8 9 Oeste 21 Noroeste 0 922.2 0.3 66
2018-02-07 13:00:00 3.8 12 Oeste 24 Oeste 0 922.4 1.1 72
2018-02-07 12:00:00 1.5 10 Oeste 22 Noroeste 0 922.5 1.8 86
2018-02-07 11:00:00 1.3 9 Oeste 20 Oeste 0 921.9 1.7 86
2018-02-07 10:00:00 -0.3 10 Oeste 23 Oeste 0 921.3 1.3 94
2018-02-07 09:00:00 -1.1 12 Oeste 27 Oeste 0 920.7 0.7 95
2018-02-07 08:00:00 -1.2 11 Oeste 26 Oeste 0 920.2 0.5 94
2018-02-07 07:00:00 -1.2 8 Oeste 23 Oeste 0 920 0.4 95
2018-02-07 06:00:00 -1.3 10 Oeste 20 Sudoeste 0 920 0.6 94
2018-02-07 05:00:00 -1.5 9 Oeste 24 Oeste 0 919.7 0.5 94
2018-02-07 04:00:00 -1.4 12 Oeste 29 Noroeste 0 919.6 0.6 93
2018-02-07 03:00:00 -1.5 12 Oeste 24 Noroeste 0 919.4 0.3 93
2018-02-07 02:00:00 -0.9 12 Oeste 26 Oeste 0 919.2 0.2 92
2018-02-07 01:00:00 -0.4 8 Oeste 28 Oeste 0 919 0.5 93
2018-02-07 00:00:00 -0.9 8 Oeste 21 Oeste 0 919.1 0.6 90
2018-02-06 23:00:00 -0.6 8 Oeste 18 Oeste 0 919 0.8 85
2018-02-06 22:00:00 -0.8 9 Oeste 16 Oeste 0 918.5 0.6 88
2018-02-06 21:00:00 -0.7 8 Oeste 14 Oeste 0 918.5 1.1 88
2018-02-06 20:00:00 0.2 7 Oeste 14 Noroeste 0 918.2 0.7 84
2018-02-06 19:00:00 1.2 9 Oeste 18 Noroeste 0 917.9 0.1 78
2018-02-06 18:00:00 1.9 4 Noroeste 17 Noroeste 0 917.4 -0.7 72
2018-02-06 17:00:00 2.3 8 Noroeste 19 Norte 0 917.5 -1.3 70
2018-02-06 16:00:00 3.1 11 Noroeste 22 Norte 0 917.8 -1.2 68
2018-02-06 15:00:00 2.4 12 Noroeste 24 Norte 0 918.1 -1.1 73
2018-02-06 14:00:00 0.9 10 Oeste 21 Oeste 0 918.8 0 79
2018-02-06 13:00:00 2.4 8 Oeste 19 Oeste 0 919 0.1 73
2018-02-06 12:00:00 1.5 14 Oeste 25 Oeste 0 919.2 0.7 74
2018-02-06 11:00:00 1.8 6 Oeste 13 Noroeste 0 918.8 0.6 71
2018-02-06 10:00:00 -1 5 Noroeste 12 Oeste 0 918.9 0.8 76
2018-02-06 09:00:00 -1.9 6 Noroeste 21 Noroeste 0 918.5 0.7 76
2018-02-06 08:00:00 -2.1 5 Noroeste 19 Norte 0 918.2 0.6 75
2018-02-06 07:00:00 -2.5 11 Noroeste 20 Norte 0 918.1 0.3 75
2018-02-06 06:00:00 -3.3 10 Noroeste 19 Norte 0 917.8 -0.2 77
2018-02-06 05:00:00 -4 8 Oeste 19 Oeste 0 917.6 -0.4 82
2018-02-06 04:00:00 -3.7 8 Oeste 16 Oeste 0 917.8 -0.4 80
2018-02-06 03:00:00 -3.2 8 Oeste 21 Noroeste 0 918 -0.1 76
2018-02-06 02:00:00 -2.7 8 Noroeste 15 Noroeste 0 918 0.1 73
2018-02-06 01:00:00 -2.7 6 Oeste 16 Oeste 0 918.2 0.6 80
2018-02-06 00:00:00 -2.7 6 Noroeste 15 Noroeste 0 918.1 0.8 75
2018-02-05 23:00:00 -2.4 8 Oeste 16 Noroeste 0 917.9 1 79
2018-02-05 22:00:00 -2.1 7 Noroeste 16 Noroeste 0 917.6 1.3 74
2018-02-05 21:00:00 -2 8 Noroeste 19 Noroeste 0 917.3 1.4 73
2018-02-05 20:00:00 -1.5 6 Noroeste 22 Noroeste 0 916.9 1.4 70
2018-02-05 19:00:00 -0.7 7 Norte 27 Nordeste 0 916.3 1.2 66
2018-02-05 18:00:00 0.6 8 Norte 29 Norte 0 915.9 0.5 62
2018-02-05 17:00:00 0.9 10 Nordeste 41 Norte 0 915.5 -0.2 60
2018-02-05 16:00:00 1.8 17 Norte 43 Norte 0 915.1 -0.6 60
2018-02-05 15:00:00 3.7 14 Norte 40 Nordeste 0 915.4 -0.4 56
2018-02-05 14:00:00 4.2 15 Norte 39 Norte 0 915.7 0.2 56
2018-02-05 13:00:00 2.6 18 Noroeste 36 Noroeste 0 915.7 0.5 74
2018-02-05 12:00:00 1.7 13 Oeste 29 Oeste 0 915.8 1.2 86
2018-02-05 11:00:00 2.1 11 Oeste 24 Oeste 0 915.5 1.4 89
2018-02-05 10:00:00 1 12 Oeste 28 Noroeste 0 915.2 1.4 96
2018-02-05 09:00:00 -0.5 13 Oeste 28 Oeste 0 914.6 0.7 97
2018-02-05 08:00:00 -0.2 11 Oeste 28 Oeste 0 914.1 0.2 97
2018-02-05 07:00:00 -0.2 14 Oeste 26 Oeste 0 913.8 -0.3 96
2018-02-05 06:00:00 -0.4 13 Oeste 28 Oeste 0 913.9 -0.5 96
2018-02-05 05:00:00 -0.6 13 Oeste 29 Oeste 0 913.9 -0.9 95
2018-02-05 04:00:00 -0.5 9 Oeste 23 Noroeste 0 914.1 -0.9 91
2018-02-05 03:00:00 -0.3 13 Noroeste 29 Noroeste 0 914.4 -0.8 94
2018-02-05 02:00:00 -0.3 11 Oeste 25 Oeste 0 914.8 -0.3 94
2018-02-05 01:00:00 -0.2 11 Oeste 22 Oeste 0 915 -0.6 95
2018-02-05 00:00:00 -0.2 10 Noroeste 28 Oeste 0 915.2 -0.5 94
2018-02-04 23:00:00 0.3 8 Oeste 28 Sudoeste 0 915.1 -0.4 93
2018-02-04 22:00:00 0.7 11 Oeste 21 Oeste 0 915.6 0.3 94
2018-02-04 21:00:00 0.9 13 Oeste 34 Oeste 0 915.7 0.3 93
2018-02-04 20:00:00 1.1 8 Oeste 24 Oeste 0 915.5 -0.1 92
2018-02-04 19:00:00 1 6 Noroeste 17 Noroeste 0 915.3 -0.7 90
2018-02-04 18:00:00 2 9 Noroeste 28 Noroeste 0 915.4 -0.9 87
2018-02-04 17:00:00 3.2 8 Noroeste 20 Noroeste 0 915.6 -1.1 85
2018-02-04 16:00:00 3.6 11 Oeste 22 Oeste 0 916 -1.4 84
2018-02-04 15:00:00 4.7 9 Oeste 23 Oeste 0 916.3 -1.4 80
2018-02-04 14:00:00 5.4 13 Oeste 24 Noroeste 0 916.7 -1 80
2018-02-04 13:00:00 4.1 12 Oeste 23 Oeste 0 917.4 0.2 79
2018-02-04 12:00:00 3.8 8 Noroeste 24 Norte 0 917.7 0.5 78
2018-02-04 11:00:00 1.2 10 Oeste 20 Oeste 0 917.7 0.9 89
2018-02-04 10:00:00 -0.1 11 Oeste 22 Oeste 0.2 917.2 -0.1 94
2018-02-04 09:00:00 -0.5 10 Oeste 22 Oeste 0 917.2 -0.6 95
2018-02-04 08:00:00 -0.5 12 Oeste 23 Oeste 0 916.8 -0.9 94
2018-02-04 07:00:00 -0.4 10 Oeste 30 Oeste 0 917.3 -0.1 95
2018-02-04 06:00:00 -0.4 9 Oeste 24 Noroeste 0 917.8 0 95
2018-02-04 05:00:00 -0.1 8 Oeste 30 Noroeste 0 917.7 -1.1 93
2018-02-04 04:00:00 -0.1 14 Oeste 34 Noroeste 0 917.4 -2.1 93
2018-02-04 03:00:00 0.3 10 Noroeste 26 Noroeste 0 917.8 -2.1 91
2018-02-04 02:00:00 0.5 8 Noroeste 28 Noroeste 0 918.8 -0.8 90
2018-02-04 01:00:00 1.2 10 Noroeste 39 Noroeste 0.2 919.5 0 93
2018-02-04 00:00:00 1.7 14 Noroeste 42 Noroeste 0.4 919.9 -0.1 94
2018-02-03 23:00:00 1.8 17 Noroeste 40 Noroeste 1.4 919.6 -0.8 94
2018-02-03 22:00:00 2.1 17 Oeste 36 Noroeste 2 919.5 -0.8 94
2018-02-03 21:00:00 2.9 16 Oeste 34 Noroeste 1 920 -0.7 94
2018-02-03 20:00:00 3.3 13 Noroeste 32 Oeste 0.4 920.4 -0.1 94
2018-02-03 19:00:00 3.7 14 Oeste 35 Oeste 0 920.3 -0.2 94
2018-02-03 18:00:00 3.8 15 Oeste 35 Oeste 1 920.7 0 94
2018-02-03 17:00:00 4.4 12 Noroeste 31 Noroeste 1 920.5 -1.4 94
2018-02-03 16:00:00 5.1 11 Oeste 35 Oeste 0.4 920.5 -1.7 95
2018-02-03 15:00:00 5.4 14 Oeste 40 Oeste 0.4 920.7 -2.1 95
2018-02-03 14:00:00 4.9 12 Oeste 31 Oeste 0.4 921.9 -1.1 95
2018-02-03 13:00:00 4.6 16 Oeste 32 Oeste 0.8 922.2 -0.7 94
2018-02-03 12:00:00 3.6 12 Oeste 30 Oeste 0.8 922.8 -0.1 95
2018-02-03 11:00:00 2.8 12 Oeste 24 Oeste 0.4 923 0.1 95
2018-02-03 10:00:00 2 13 Oeste 22 Oeste 0.2 922.9 -0.2 96
2018-02-03 09:00:00 1.1 6 Oeste 14 Oeste 0.2 922.9 -0.4 96
2018-02-03 08:00:00 0.8 7 Noroeste 15 Oeste 0.2 922.9 -0.1 95
2018-02-03 07:00:00 0.7 7 Oeste 17 Oeste 0 923.1 -0.1 95
2018-02-03 06:00:00 0.6 9 Oeste 16 Oeste 0 923.3 -0.2 94
2018-02-03 05:00:00 0.3 8 Oeste 17 Oeste 0 923 -1.1 95
2018-02-03 04:00:00 0.1 9 Oeste 17 Oeste 0 923.2 -0.8 93
2018-02-03 03:00:00 -0.2 7 Oeste 14 Noroeste 0 923.5 -0.5 94
2018-02-03 02:00:00 -0.8 6 Oeste 11 Oeste 0 924.1 0.1 93
2018-02-03 01:00:00 -1.2 3 Oeste 10 Oeste 0 924 0.3 93
2018-02-03 00:00:00 -0.6 6 Oeste 16 Oeste 0 924 0.7 93
2018-02-02 23:00:00 -0.2 8 Oeste 19 Noroeste 0 924 0.8 93
2018-02-02 22:00:00 -0.4 10 Oeste 18 Oeste 0 923.7 1 92
2018-02-02 21:00:00 -0.5 7 Oeste 18 Oeste 0 923.3 0.9 91
2018-02-02 20:00:00 -0.1 6 Oeste 13 Oeste 0 923.2 1.3 85
2018-02-02 19:00:00 0.7 4 Oeste 24 Norte 0 922.7 1.4 79
2018-02-02 18:00:00 2.3 7 Noroeste 18 Oeste 0 922.4 1.2 71
2018-02-02 17:00:00 3 7 Noroeste 28 Noroeste 0 921.9 0.5 73
2018-02-02 16:00:00 4 10 Noroeste 24 Norte 0 921.3 -0.5 69
2018-02-02 15:00:00 4 9 Norte 28 Noroeste 0 921.2 -0.3 74
2018-02-02 14:00:00 3.7 10 Noroeste 21 Noroeste 0 921.4 0.3 76
2018-02-02 13:00:00 2.1 5 Noroeste 24 Oeste 0.2 921.8 1.2 81
2018-02-02 12:00:00 1.6 9 Oeste 19 Sudoeste 0.2 921.5 1.6 85
2018-02-02 11:00:00 0.6 8 Oeste 16 Oeste 0 921.1 1.6 91
2018-02-02 10:00:00 -0.5 8 Oeste 21 Sudoeste 0 920.6 1.6 94
2018-02-02 09:00:00 -0.9 12 Oeste 28 Oeste 0 919.9 1 95
2018-02-02 08:00:00 -0.7 10 Oeste 22 Oeste 0 919.5 0.7 95
2018-02-02 07:00:00 -0.5 6 Oeste 17 Noroeste 0 919 0 95
2018-02-02 06:00:00 -0.8 10 Sudoeste 23 Oeste 0.2 918.9 0.2 95
2018-02-02 05:00:00 -1.2 7 Sudoeste 17 Oeste 0 918.8 0 94
2018-02-02 04:00:00 -0.6 9 Oeste 17 Oeste 0 919 0.8 95
2018-02-02 03:00:00 -0.7 9 Oeste 23 Oeste 0 918.7 0.2 94
2018-02-02 02:00:00 -0.6 6 Sudoeste 18 Oeste 0 918.8 0.5 94
2018-02-02 01:00:00 -0.4 9 Sudoeste 27 Noroeste 0.4 918.2 -0.3 93
2018-02-02 00:00:00 0.1 10 Noroeste 26 Oeste 0.6 918.5 0.4 94
2018-02-01 23:00:00 0.4 10 Oeste 23 Norte 0.6 918.3 0.6 95
2018-02-01 22:00:00 0.3 7 Noroeste 26 Noroeste 0.4 918.5 1.2 94
2018-02-01 21:00:00 0.5 6 Oeste 25 Oeste 0.6 918.1 0.8 94
2018-02-01 20:00:00 0.6 9 Noroeste 25 Oeste 0 917.7 0.1 93
2018-02-01 19:00:00 0.9 10 Noroeste 38 Oeste 0 917.3 -0.1 90
2018-02-01 18:00:00 1.4 12 Noroeste 31 Oeste 0 917.3 -0.5 87
2018-02-01 17:00:00 1.8 13 Noroeste 41 Norte 0.2 917.6 -1.4 89
2018-02-01 16:00:00 2.8 10 Noroeste 35 Noroeste 0 917.4 -2.2 87
2018-02-01 15:00:00 2.2 18 Oeste 39 Oeste 1.8 917.8 -2.5 92
2018-02-01 14:00:00 3.1 16 Noroeste 37 Noroeste 1 919 -1.8 86
2018-02-01 13:00:00 3.5 15 Noroeste 34 Noroeste 1 919.6 -1.2 92
2018-02-01 12:00:00 3.7 12 Noroeste 37 Oeste 0 920.3 -0.7 86
2018-02-01 11:00:00 3.3 14 Noroeste 36 Noroeste 0.2 920.8 -0.2 89
2018-02-01 10:00:00 2.9 12 Noroeste 29 Noroeste 0 920.8 -0.4 91
2018-02-01 09:00:00 2.7 10 Noroeste 27 Noroeste 0 921 -0.2 91
2018-02-01 08:00:00 3.1 12 Noroeste 24 Noroeste 0 921 -0.2 92
2018-02-01 07:00:00 3.1 7 Noroeste 33 Noroeste 0.6 921.2 -0.6 90
2018-02-01 06:00:00 4.4 12 Noroeste 34 Noroeste 0.2 921.2 -0.9 94
2018-02-01 05:00:00 4.8 8 Oeste 27 Oeste 0.6 921.2 -1.6 94
2018-02-01 04:00:00 4.9 9 Oeste 19 Oeste 0 921.8 -1.1 94
2018-02-01 03:00:00 5.1 7 Sudoeste 16 Oeste 0.2 922.1 -0.8 94
2018-02-01 02:00:00 5.4 7 Oeste 19 Noroeste 0.2 922.8 -0.8 94
2018-02-01 01:00:00 5.7 6 Oeste 15 Oeste 0 922.9 -0.9 93
2018-02-01 00:00:00 5.6 7 Oeste 15 Oeste 0 922.9 -1.5 91
2018-01-31 23:00:00 5.5 8 Oeste 21 Oeste 0 923.6 -0.4 86
2018-01-31 22:00:00 5.2 12 Oeste 25 Noroeste 0 923.8 0.1 87
2018-01-31 21:00:00 5.5 15 Oeste 29 Oeste 0 924.4 0.7 79
2018-01-31 20:00:00 6.6 13 Noroeste 25 Oeste 0 924 0 67
2018-01-31 19:00:00 8.2 11 Oeste 23 Oeste 0 923.7 -0.6 56
2018-01-31 18:00:00 9.6 12 Oeste 23 Oeste 0 923.7 -0.9 47
2018-01-31 17:00:00 11 12 Noroeste 26 Noroeste 0 924 -1.4 37
2018-01-31 16:00:00 12.9 10 Noroeste 23 Oeste 0 924.3 -2.7 41
2018-01-31 15:00:00 12.8 6 Este 14 Este 0 924.6 -2.9 42
2018-01-31 14:00:00 12.5 8 Sudeste 13 Sudeste 0 925.4 -2.1 44
2018-01-31 13:00:00 12.2 5 Sudeste 10 Este 0 927 -0.8 43
2018-01-31 12:00:00 9.4 3 Este 10 Sudeste 0 927.5 0.4 48
2018-01-31 11:00:00 6.3 5 Sudeste 9 Sudeste 0 927.5 0.5 57
2018-01-31 10:00:00 3.3 0 Calma 13 Oeste 0 927.8 0.3 71
2018-01-31 09:00:00 -0.2 10 Noroeste 15 Noroeste 0 927.1 -0.5 80
2018-01-31 08:00:00 0.2 7 Noroeste 12 Noroeste 0 927 -0.5 74
2018-01-31 07:00:00 0.7 3 Oeste 11 Noroeste 0 927.5 -0.2 73
2018-01-31 06:00:00 0.5 8 Oeste 15 Noroeste 0 927.6 -0.3 74
2018-01-31 05:00:00 0.5 9 Noroeste 14 Noroeste 0 927.5 -0.7 73
2018-01-31 04:00:00 0.8 7 Noroeste 13 Noroeste 0 927.7 -0.9 72
2018-01-31 03:00:00 1 7 Noroeste 13 Noroeste 0 927.9 -0.9 70
2018-01-31 02:00:00 1.7 10 Noroeste 14 Noroeste 0 928.2 -0.7 68
2018-01-31 01:00:00 2.7 9 Oeste 18 Noroeste 0 928.6 -0.3 63
2018-01-31 00:00:00 2.7 10 Noroeste 16 Noroeste 0 928.8 -0.1 64
2018-01-30 23:00:00 3.9 10 Noroeste 18 Noroeste 0 928.9 0.2 59
2018-01-30 22:00:00 3.9 11 Noroeste 18 Noroeste 0 928.9 0.4 61
2018-01-30 21:00:00 4.8 10 Noroeste 18 Oeste 0 928.9 0.5 58
2018-01-30 20:00:00 6.6 9 Noroeste 13 Noroeste 0 928.7 0 52
2018-01-30 19:00:00 9 3 Noroeste 8 Oeste 0 928.5 -0.5 43
2018-01-30 18:00:00 10.7 2 Sudoeste 8 Sudeste 0 928.4 -1.2 38
2018-01-30 17:00:00 11.8 4 Este 10 Este 0 928.7 -1.8 34
2018-01-30 16:00:00 12.6 6 Este 11 Nordeste 0 929 -2.1 35
2018-01-30 15:00:00 13.1 5 Nordeste 11 Nordeste 0 929.6 -2.3 34
2018-01-30 14:00:00 12.6 3 Nordeste 11 Este 0 930.5 -1.3 39
2018-01-30 13:00:00 11.5 3 Nordeste 9 Este 0 931.1 -0.8 46
2018-01-30 12:00:00 8.9 6 Sudeste 12 Sudeste 0 931.9 0.1 55
2018-01-30 11:00:00 6.1 4 Noroeste 10 Noroeste 0 931.8 -0.1 60
2018-01-30 10:00:00 2.3 6 Noroeste 13 Noroeste 0 931.9 0.1 68
2018-01-30 09:00:00 -0.7 8 Noroeste 13 Oeste 0 931.8 -0.2 77
2018-01-30 08:00:00 -0.7 8 Noroeste 14 Noroeste 0 931.9 -0.3 76
2018-01-30 07:00:00 -0.4 7 Noroeste 13 Oeste 0 931.8 -0.7 76
2018-01-30 06:00:00 -0.3 8 Noroeste 14 Noroeste 0 932 -1 77
2018-01-30 05:00:00 0.6 8 Noroeste 16 Noroeste 0 932.2 -1.2 75
2018-01-30 04:00:00 1 9 Noroeste 14 Noroeste 0 932.5 -1.3 76
2018-01-30 03:00:00 1.7 9 Noroeste 13 Noroeste 0 933 -0.9 75
2018-01-30 02:00:00 2 6 Noroeste 9 Noroeste 0 933.4 -0.6 75
2018-01-30 01:00:00 2.5 7 Noroeste 14 Noroeste 0 933.8 -0.1 73
2018-01-30 00:00:00 2.7 10 Noroeste 16 Noroeste 0 933.9 0.1 73
2018-01-29 23:00:00 2.9 10 Noroeste 16 Noroeste 0 934 0.3 71
2018-01-29 22:00:00 3.9 9 Noroeste 14 Noroeste 0 933.9 0.6 66
2018-01-29 21:00:00 5.1 8 Noroeste 11 Noroeste 0 933.8 0.5 62
2018-01-29 20:00:00 7.2 4 Noroeste 7 Noroeste 0 933.7 0.2 54
2018-01-29 19:00:00 9.3 0 Calma 6 Sudoeste 0 933.3 -0.7 49
2018-01-29 18:00:00 10.6 4 Sudeste 11 Sur 0 933.3 -1.5 48
2018-01-29 17:00:00 11.7 5 Sudeste 13 Sur 0 933.5 -2.4 42
2018-01-29 16:00:00 12.8 6 Sudeste 13 Sudeste 0 934 -2.9 41
2018-01-29 15:00:00 12.8 5 Este 12 Nordeste 0 934.8 -2.7 43
2018-01-29 14:00:00 12.2 4 Este 11 Este 0 935.9 -1.7 49
2018-01-29 13:00:00 11.1 7 Sudeste 13 Sudeste 0 936.9 -0.8 54
2018-01-29 12:00:00 10 2 Nordeste 10 Noroeste 0 937.5 -0.2 55
2018-01-29 11:00:00 6.9 5 Oeste 18 Oeste 0 937.6 0.2 68
2018-01-29 10:00:00 3.1 9 Noroeste 16 Oeste 0 937.7 0.5 79
2018-01-29 09:00:00 0.9 9 Noroeste 15 Oeste 0 937.7 0.3 86
2018-01-29 08:00:00 1 8 Noroeste 12 Noroeste 0 937.4 -0.1 85
2018-01-29 07:00:00 1.6 7 Norte 14 Noroeste 0 937.2 -0.6 83
2018-01-29 06:00:00 1.9 6 Norte 12 Noroeste 0 937.4 -0.5 80
2018-01-29 05:00:00 2.5 5 Oeste 10 Sudoeste 0 937.5 -0.6 79
2018-01-29 04:00:00 3.6 2 Sudeste 13 Nordeste 0 937.8 -0.3 73
2018-01-29 03:00:00 4.3 8 Nordeste 12 Nordeste 0 937.9 -0.1 71
2018-01-29 02:00:00 3.9 4 Oeste 12 Oeste 0 938.1 0 72
2018-01-29 01:00:00 5.2 3 Norte 22 Este 0 938.1 0.1 65
2018-01-29 00:00:00 5.9 8 Este 13 Este 0 938 0.3 63
2018-01-28 23:00:00 6.3 5 Sudeste 17 Sur 0 938.1 1 61
2018-01-28 22:00:00 7.3 8 Sudeste 21 Sudeste 0 938 1.5 57
2018-01-28 21:00:00 7.2 8 Sudeste 19 Sudeste 0 937.7 1.7 58
2018-01-28 20:00:00 7.1 4 Sudeste 12 Este 0 937.1 1.2 55
2018-01-28 19:00:00 8.9 8 Este 22 Nordeste 0 936.5 0.6 50
2018-01-28 18:00:00 10.2 12 Este 24 Este 0 936 -0.3 46
2018-01-28 17:00:00 11 12 Este 26 Este 0 935.9 -1.3 44
2018-01-28 16:00:00 11.1 14 Este 29 Sudeste 0 935.9 -1.8 43
2018-01-28 15:00:00 10.6 13 Este 25 Este 0 936.3 -1.7 46
2018-01-28 14:00:00 9.4 10 Este 19 Este 0 937.2 -0.7 54
2018-01-28 13:00:00 8.3 9 Este 18 Sudeste 0 937.7 0.2 64
2018-01-28 12:00:00 5.8 9 Este 16 Este 0 938 0.7 81
2018-01-28 11:00:00 3.7 9 Este 16 Este 0 937.9 1 97
2018-01-28 10:00:00 2.5 4 Sudeste 9 Sudeste 0 937.5 1 97
2018-01-28 09:00:00 2.2 2 Sur 8 Sudeste 0 937.3 1.1 97
2018-01-28 08:00:00 2.1 2 Este 8 Noroeste 0 936.9 1 97
2018-01-28 07:00:00 1.9 3 Nordeste 8 Norte 0 936.5 0.5 97
2018-01-28 06:00:00 2 4 Sudoeste 7 Sudoeste 0 936.2 0.2 96
2018-01-28 05:00:00 2 2 Oeste 11 Noroeste 0 935.9 -0.2 96
2018-01-28 04:00:00 2.3 3 Nordeste 8 Noroeste 0 936 -0.2 95
2018-01-28 03:00:00 2.8 6 Noroeste 13 Noroeste 0 936 0 95
2018-01-28 02:00:00 3.4 4 Sudoeste 10 Noroeste 0 936.1 0 94
2018-01-28 01:00:00 4 3 Nordeste 9 Noroeste 0 936.2 0.2 93
2018-01-28 00:00:00 4.9 4 Noroeste 9 Noroeste 0 936 0.3 92
2018-01-27 23:00:00 5.5 5 Oeste 11 Oeste 0 936.1 0.6 91
2018-01-27 22:00:00 5.7 6 Oeste 17 Noroeste 0 936 0.7 89
2018-01-27 21:00:00 6 6 Noroeste 28 Norte 0 935.7 0.6 87
2018-01-27 20:00:00 5.6 11 Noroeste 30 Noroeste 0 935.5 0.6 89
2018-01-27 19:00:00 5.5 11 Oeste 21 Oeste 0 935.3 0.5 90
2018-01-27 18:00:00 6 11 Oeste 20 Noroeste 0 935.1 0.2 86
2018-01-27 17:00:00 6.4 10 Oeste 21 Oeste 0 934.9 -0.3 85
2018-01-27 16:00:00 7 9 Oeste 18 Oeste 0 934.8 -0.7 83
2018-01-27 15:00:00 7.3 9 Oeste 23 Noroeste 0 934.9 -0.7 80
2018-01-27 14:00:00 7.6 8 Noroeste 21 Oeste 0 935.2 -0.4 82
2018-01-27 13:00:00 6.5 12 Oeste 21 Noroeste 0 935.5 0.2 78
2018-01-27 12:00:00 6.9 8 Noroeste 20 Oeste 0 935.6 1 77
2018-01-27 11:00:00 5.8 10 Oeste 23 Oeste 0 935.6 1.3 88
2018-01-27 10:00:00 3.4 10 Oeste 21 Oeste 0 935.3 1.4 93
2018-01-27 09:00:00 2.6 9 Oeste 15 Oeste 0 934.6 0.8 95
2018-01-27 08:00:00 2.5 8 Sudoeste 19 Sudoeste 0 934.3 0.8 95
2018-01-27 07:00:00 2.3 9 Oeste 21 Oeste 0 933.9 -0.2 94
2018-01-27 06:00:00 2.1 9 Oeste 24 Sudoeste 0 933.8 0 95
2018-01-27 05:00:00 2.2 9 Oeste 18 Oeste 0 933.5 -0.4 95
2018-01-27 04:00:00 2.3 7 Oeste 15 Oeste 0 934.1 0.1 95
2018-01-27 03:00:00 2.2 7 Oeste 21 Oeste 0 933.8 0.2 94
2018-01-27 02:00:00 2 9 Oeste 24 Oeste 0 933.9 0.6 93
2018-01-27 01:00:00 2 12 Oeste 24 Oeste 0 934 0.9 93
2018-01-27 00:00:00 2 14 Oeste 32 Noroeste 0 933.6 0.4 91
2018-01-26 23:00:00 2.3 9 Oeste 27 Oeste 0 933.3 0.9 90
2018-01-26 22:00:00 2.9 10 Noroeste 26 Oeste 0 933.1 1.3 90
2018-01-26 21:00:00 3 10 Noroeste 25 Noroeste 0 933.2 1.9 92
2018-01-26 20:00:00 3.1 9 Oeste 21 Oeste 0 932.4 1.6 92
2018-01-26 19:00:00 3.2 10 Oeste 22 Oeste 0 931.8 1.2 93
2018-01-26 18:00:00 3.2 6 Oeste 26 Noroeste 1.4 931.3 1.1 92
2018-01-26 17:00:00 3.9 9 Oeste 26 Noroeste 0 930.8 0.5 89
2018-01-26 16:00:00 4.2 13 Noroeste 29 Noroeste 0.2 930.6 0 89
2018-01-26 15:00:00 4.3 12 Noroeste 31 Noroeste 0 930.2 -0.7 88
2018-01-26 14:00:00 4 11 Noroeste 39 Noroeste 0 930.3 -0.1 90
2018-01-26 13:00:00 3.5 12 Noroeste 33 Noroeste 0 930.6 1.1 93
2018-01-26 12:00:00 2.9 11 Oeste 35 Oeste 0.6 930.9 2 95
2018-01-26 11:00:00 2.3 15 Oeste 37 Oeste 0 930.4 2.3 95
2018-01-26 10:00:00 1.7 14 Oeste 30 Oeste 0.4 929.5 1.7 96
2018-01-26 09:00:00 1.4 9 Oeste 25 Oeste 0.2 928.9 1.5 96
2018-01-26 08:00:00 1.3 9 Oeste 22 Oeste 0 928.1 1.1 96
2018-01-26 07:00:00 1.2 11 Oeste 27 Noroeste 0 927.8 1.2 96
2018-01-26 06:00:00 1.4 13 Oeste 26 Oeste 0 927.4 1.1 96
2018-01-26 05:00:00 1.3 9 Oeste 29 Oeste 0 927 1.3 96
2018-01-26 04:00:00 1.2 10 Oeste 28 Oeste 0.2 926.6 1.1 96
2018-01-26 03:00:00 1.4 12 Oeste 31 Oeste 0.4 926.3 1 96
2018-01-26 02:00:00 1.4 13 Oeste 26 Oeste 0.8 925.7 0.8 95
2018-01-26 01:00:00 1.8 10 Oeste 22 Oeste 0 925.5 0.7 95
2018-01-26 00:00:00 1.8 10 Oeste 23 Oeste 0 925.3 0.8 95
2018-01-25 23:00:00 1.4 13 Oeste 29 Oeste 0 924.9 0.7 95
2018-01-25 22:00:00 1.8 15 Oeste 27 Oeste 0.2 924.8 1 95
2018-01-25 21:00:00 1.7 6 Oeste 30 Noroeste 0 924.5 1.9 95
2018-01-25 20:00:00 1.8 14 Oeste 28 Oeste 0 924.2 1.9 94
2018-01-25 19:00:00 2.1 13 Oeste 33 Noroeste 1 923.8 1.8 93
2018-01-25 18:00:00 3.4 9 Oeste 24 Oeste 0 922.6 0.9 92
2018-01-25 17:00:00 3.8 11 Oeste 24 Oeste 0 922.3 0.5 91
2018-01-25 16:00:00 2.8 10 Oeste 26 Oeste 1.6 922 0.1 92
2018-01-25 15:00:00 3.2 9 Oeste 23 Oeste 1.2 921.7 -0.1 94
2018-01-25 14:00:00 3 14 Oeste 26 Oeste 2.2 921.8 0.4 92
2018-01-25 13:00:00 4.7 9 Oeste 37 Noroeste 0.8 921.9 0.6 93
2018-01-25 12:00:00 4.6 7 Noroeste 32 Oeste 0.6 921.8 1.2 92
2018-01-25 11:00:00 4.2 9 Oeste 27 Oeste 1.2 921.4 0.9 94
2018-01-25 10:00:00 4.4 14 Oeste 30 Oeste 2.8 921.3 0.4 93
2018-01-25 09:00:00 5.2 15 Oeste 29 Oeste 3.2 920.6 -0.5 95
2018-01-25 08:00:00 5.7 8 Oeste 23 Oeste 0.6 920.5 -0.9 95
2018-01-25 07:00:00 6.2 13 Oeste 26 Oeste 1.2 920.9 -1 94
2018-01-25 06:00:00 6.7 8 Oeste 17 Oeste 1 921.1 -1.2 94
2018-01-25 05:00:00 6.8 7 Noroeste 18 Sudoeste 0.8 921.4 -2 93
2018-01-25 04:00:00 6.5 7 Nordeste 15 Nordeste 0 921.9 -2.3 93
2018-01-25 03:00:00 7.3 6 Norte 21 Oeste 0 922.3 -2.5 88
2018-01-25 02:00:00 6.5 5 Este 12 Nordeste 0 923.4 -2 92
2018-01-25 01:00:00 6.7 5 Nordeste 12 Este 0 924.2 -1.3 91
2018-01-25 00:00:00 6.9 6 Este 14 Este 0 924.8 -1 90
2018-01-24 23:00:00 6.8 6 Sudeste 19 Este 0 925.4 -0.7 88
2018-01-24 22:00:00 6.4 7 Este 15 Nordeste 0 925.5 -0.6 88
2018-01-24 21:00:00 6.2 4 Sur 14 Nordeste 0 925.8 -0.4 88
2018-01-24 20:00:00 6.1 7 Noroeste 15 Norte 0 926.1 -0.2 87
2018-01-24 19:00:00 6.3 3 Norte 12 Este 0 926.1 -0.5 85
2018-01-24 18:00:00 6.5 2 Este 9 Este 0 926.2 -0.7 83
2018-01-24 17:00:00 6.5 4 Sudeste 14 Este 0 926.3 -1.3 82
2018-01-24 16:00:00 7.3 4 Este 9 Sur 0 926.6 -1.9 83
2018-01-24 15:00:00 7.1 4 Este 13 Sudeste 0 926.9 -2.3 79
2018-01-24 14:00:00 6.5 3 Sudeste 15 Este 0 927.6 -1.8 80
2018-01-24 13:00:00 5.5 5 Sudeste 15 Este 0 928.5 -0.8 81
2018-01-24 12:00:00 4.3 6 Este 12 Este 0 929.2 0.1 87
2018-01-24 11:00:00 3 7 Este 12 Nordeste 0 929.4 0.5 93
2018-01-24 10:00:00 1.6 3 Este 7 Nordeste 0 929.3 0.6 96
2018-01-24 09:00:00 -0.6 7 Noroeste 15 Noroeste 0 929.1 0.2 97
2018-01-24 08:00:00 -1.3 10 Noroeste 17 Noroeste 0 928.9 -0.1 97
2018-01-24 07:00:00 -1 5 Norte 13 Noroeste 0 928.7 -0.3 97
2018-01-24 06:00:00 -0.3 5 Noroeste 14 Noroeste 0 928.9 -0.3 97
2018-01-24 05:00:00 -0.2 4 Noroeste 12 Noroeste 0 929 -0.5 96
2018-01-24 04:00:00 0.1 7 Noroeste 10 Noroeste 0 929 -1 96
2018-01-24 03:00:00 0.7 6 Noroeste 11 Oeste 0 929.2 -1.2 96
2018-01-24 02:00:00 1.3 0 Calma 12 Nordeste 0 929.5 -1.1 95
2018-01-24 01:00:00 1.7 4 Nordeste 9 Nordeste 0 930 -0.7 94
2018-01-24 00:00:00 2 7 Noroeste 10 Noroeste 0 930.4 -0.7 94
2018-01-23 23:00:00 2.9 3 Nordeste 7 Norte 0 930.6 -0.7 93
2018-01-23 22:00:00 3.5 4 Noroeste 7 Oeste 0 930.7 -0.5 92
2018-01-23 21:00:00 4 5 Noroeste 12 Oeste 0 931.1 0.1 88
2018-01-23 20:00:00 5.6 7 Oeste 10 Noroeste 0 931.3 0.4 86
2018-01-23 19:00:00 6.5 6 Noroeste 9 Oeste 0 931.2 0.1 82
2018-01-23 18:00:00 8.2 4 Sudeste 12 Sudeste 0 931 -0.4 75
2018-01-23 17:00:00 8.8 7 Este 13 Este 0 930.9 -1.2 73
2018-01-23 16:00:00 9.6 7 Este 16 Este 0 931.1 -1.7 71
2018-01-23 15:00:00 10.3 6 Este 14 Este 0 931.4 -1.8 68
2018-01-23 14:00:00 8.3 4 Este 13 Sudeste 0 932.1 -0.9 74
2018-01-23 13:00:00 8.4 7 Este 13 Este 0 932.8 0.2 80
2018-01-23 12:00:00 7.6 2 Sudeste 5 Oeste 0 933.2 1 82
2018-01-23 11:00:00 6.2 0 Calma 6 Sudeste 0 933 1.2 87
2018-01-23 10:00:00 5.4 4 Norte 14 Noroeste 0 932.6 1 90
2018-01-23 09:00:00 4.7 5 Noroeste 14 Oeste 0 932.2 0.6 91
2018-01-23 08:00:00 4.5 3 Norte 8 Noroeste 0 931.8 0.2 92
2018-01-23 07:00:00 4.4 3 Norte 11 Noroeste 0 931.6 -0.2 90
2018-01-23 06:00:00 4.4 8 Noroeste 14 Noroeste 0 931.6 -0.3 92
2018-01-23 05:00:00 3.5 9 Noroeste 14 Noroeste 0 931.6 -0.4 93
2018-01-23 04:00:00 3.3 8 Noroeste 12 Noroeste 0 931.8 -0.6 91
2018-01-23 03:00:00 4.2 7 Noroeste 11 Noroeste 0 931.9 -0.5 89
2018-01-23 02:00:00 5.2 6 Noroeste 11 Noroeste 0 932 -0.5 88
2018-01-23 01:00:00 6.3 5 Noroeste 8 Noroeste 0 932.4 -0.1 86
2018-01-23 00:00:00 7.5 2 Noroeste 7 Este 0 932.4 -0.5 86
2018-01-22 23:00:00 8.4 2 Norte 7 Noroeste 0 932.5 -0.4 82
2018-01-22 22:00:00 8.6 0 Calma 5 Norte 0 932.5 -0.1 83
2018-01-22 21:00:00 8.8 3 Noroeste 8 Sudoeste 0 932.9 0.5 83
2018-01-22 20:00:00 9 4 Oeste 10 Oeste 0 932.9 0.7 80
2018-01-22 19:00:00 -- -- -- -- -- -- -- -- --
2018-01-22 18:00:00 -- -- -- -- -- -- -- -- --
2018-01-22 17:00:00 -- -- -- -- -- -- -- -- --
2018-01-22 16:00:00 -- -- -- -- -- -- -- -- --
2018-01-22 15:00:00 -- -- -- -- -- -- -- -- --
2018-01-22 14:00:00 -- -- -- -- -- -- -- -- --
2018-01-22 13:00:00 -- -- -- -- -- -- -- -- --
2018-01-22 12:00:00 -- -- -- -- -- -- -- -- --
2018-01-22 11:00:00 -- -- -- -- -- -- -- -- --
2018-01-22 10:00:00 -- -- -- -- -- -- -- -- --
2018-01-22 09:00:00 -- -- -- -- -- -- -- -- --
2018-01-22 08:00:00 -- -- -- -- -- -- -- -- --
2018-01-22 07:00:00 7.5 9 Oeste 17 Oeste 0 932.7 -0.2 88
2018-01-22 06:00:00 7.5 4 Noroeste 15 Oeste 0 932.5 -0.4 88
2018-01-22 05:00:00 7.5 5 Oeste 22 Oeste 0 932.7 -0.4 88
2018-01-22 04:00:00 7.5 9 Oeste 16 Oeste 0 932.9 -0.7 87
2018-01-22 03:00:00 8 7 Oeste 14 Oeste 0 932.9 -0.7 89
2018-01-22 02:00:00 8.2 7 Oeste 18 Oeste 0 933.1 -0.5 89
2018-01-22 01:00:00 8.3 3 Noroeste 9 Oeste 0 933.6 0 90
2018-01-22 00:00:00 8.4 4 Noroeste 10 Noroeste 0 933.6 0.1 91